Claysville, Ohio
Current Conditions -  °F | °C
As of 5:53 PM on Thursday 23 Oct 2014 (Local Time) from KZZV Reporting Station
Broken Clouds Broken Clouds  
Wind Chill: 58°   Ceiling: 4100
Heat Index: 58°   Visibility: 10mi
Dew Point: 41°   Wind: 5mph
Humidity: 53%   Direction: 290°WNW
Pressure: 30.11"   Gusts: NA
Location:  40.0425°N, 81.6006°W
Report Text: KZZV 232153Z AUTO 29004KT 10SM BKN041 14/05 A3011 RMK AO2 SLP198 T01440050
Loading
Personal Weather Stations






























Interactive Weather Map
Tropical Storm Tracking
New forecast layout! Learn more

10-Day Weather Forecast

Advertisements
Track Severe Weather on mobile